sensor_id;sensor_type;location;lat;lon;timestamp;P1;durP1;ratioP1;P2;durP2;ratioP2
69789;SDS011;57064;52.046;4.800;2023-04-24T00:01:37;4.05;;;2.20;;
69789;SDS011;57064;52.046;4.800;2023-04-24T00:04:04;4.57;;;2.58;;
69789;SDS011;57064;52.046;4.800;2023-04-24T00:06:32;5.90;;;2.72;;
69789;SDS011;57064;52.046;4.800;2023-04-24T00:09:01;8.05;;;2.35;;
69789;SDS011;57064;52.046;4.800;2023-04-24T00:11:30;7.47;;;3.10;;
69789;SDS011;57064;52.046;4.800;2023-04-24T00:13:56;9.43;;;3.58;;
69789;SDS011;57064;52.046;4.800;2023-04-24T00:16:22;6.13;;;2.90;;
69789;SDS011;57064;52.046;4.800;2023-04-24T00:18:48;7.00;;;3.63;;
69789;SDS011;57064;52.046;4.800;2023-04-24T00:21:15;6.85;;;2.88;;
69789;SDS011;57064;52.046;4.800;2023-04-24T00:23:42;10.88;;;3.72;;
69789;SDS011;57064;52.046;4.800;2023-04-24T00:26:09;10.60;;;3.15;;
69789;SDS011;57064;52.046;4.800;2023-04-24T00:28:35;6.90;;;3.08;;
69789;SDS011;57064;52.046;4.800;2023-04-24T00:31:01;6.88;;;3.22;;
69789;SDS011;57064;52.046;4.800;2023-04-24T00:33:27;7.07;;;3.67;;
69789;SDS011;57064;52.046;4.800;2023-04-24T00:35:54;6.03;;;2.92;;
69789;SDS011;57064;52.046;4.800;2023-04-24T00:38:20;8.50;;;3.60;;
69789;SDS011;57064;52.046;4.800;2023-04-24T00:40:47;7.85;;;4.03;;
69789;SDS011;57064;52.046;4.800;2023-04-24T00:43:14;7.68;;;3.65;;
69789;SDS011;57064;52.046;4.800;2023-04-24T00:45:41;13.65;;;4.20;;
69789;SDS011;57064;52.046;4.800;2023-04-24T00:48:09;9.52;;;4.60;;
69789;SDS011;57064;52.046;4.800;2023-04-24T00:50:36;11.02;;;4.82;;
69789;SDS011;57064;52.046;4.800;2023-04-24T00:53:03;9.43;;;5.05;;
69789;SDS011;57064;52.046;4.800;2023-04-24T00:55:29;11.18;;;4.65;;
69789;SDS011;57064;52.046;4.800;2023-04-24T00:57:56;9.18;;;5.18;;
69789;SDS011;57064;52.046;4.800;2023-04-24T01:00:23;10.90;;;5.45;;
69789;SDS011;57064;52.046;4.800;2023-04-24T01:02:50;10.43;;;5.15;;
69789;SDS011;57064;52.046;4.800;2023-04-24T01:05:18;13.20;;;5.57;;
69789;SDS011;57064;52.046;4.800;2023-04-24T01:07:45;8.95;;;4.47;;
69789;SDS011;57064;52.046;4.800;2023-04-24T01:10:13;9.98;;;5.25;;
69789;SDS011;57064;52.046;4.800;2023-04-24T01:12:40;13.32;;;6.35;;
69789;SDS011;57064;52.046;4.800;2023-04-24T01:15:06;10.40;;;4.60;;
69789;SDS011;57064;52.046;4.800;2023-04-24T01:17:34;13.45;;;5.22;;
69789;SDS011;57064;52.046;4.800;2023-04-24T01:20:00;9.48;;;5.15;;
69789;SDS011;57064;52.046;4.800;2023-04-24T01:22:30;11.57;;;5.22;;
69789;SDS011;57064;52.046;4.800;2023-04-24T01:24:58;17.23;;;6.28;;
69789;SDS011;57064;52.046;4.800;2023-04-24T01:27:24;15.43;;;6.80;;
69789;SDS011;57064;52.046;4.800;2023-04-24T01:29:50;14.82;;;6.85;;
69789;SDS011;57064;52.046;4.800;2023-04-24T01:32:17;12.40;;;6.03;;
69789;SDS011;57064;52.046;4.800;2023-04-24T01:34:43;13.38;;;6.55;;
69789;SDS011;57064;52.046;4.800;2023-04-24T01:37:10;15.35;;;5.85;;
69789;SDS011;57064;52.046;4.800;2023-04-24T01:39:36;12.88;;;5.80;;
69789;SDS011;57064;52.046;4.800;2023-04-24T01:42:02;16.20;;;6.15;;
69789;SDS011;57064;52.046;4.800;2023-04-24T01:44:29;13.68;;;6.15;;
69789;SDS011;57064;52.046;4.800;2023-04-24T01:46:56;14.15;;;5.80;;
69789;SDS011;57064;52.046;4.800;2023-04-24T01:49:23;12.27;;;5.53;;
69789;SDS011;57064;52.046;4.800;2023-04-24T01:51:49;10.65;;;4.35;;
69789;SDS011;57064;52.046;4.800;2023-04-24T01:54:15;10.88;;;4.95;;
69789;SDS011;57064;52.046;4.800;2023-04-24T01:56:41;12.00;;;4.72;;
69789;SDS011;57064;52.046;4.800;2023-04-24T01:59:09;9.90;;;4.18;;
69789;SDS011;57064;52.046;4.800;2023-04-24T02:01:36;10.63;;;4.40;;
69789;SDS011;57064;52.046;4.800;2023-04-24T02:04:04;9.60;;;4.20;;
69789;SDS011;57064;52.046;4.800;2023-04-24T02:06:30;8.60;;;3.83;;
69789;SDS011;57064;52.046;4.800;2023-04-24T02:08:57;11.07;;;3.17;;
69789;SDS011;57064;52.046;4.800;2023-04-24T02:11:24;9.35;;;3.22;;
69789;SDS011;57064;52.046;4.800;2023-04-24T02:13:50;5.88;;;2.92;;
69789;SDS011;57064;52.046;4.800;2023-04-24T02:16:17;7.88;;;2.90;;
69789;SDS011;57064;52.046;4.800;2023-04-24T02:18:43;8.15;;;2.83;;
69789;SDS011;57064;52.046;4.800;2023-04-24T02:21:10;10.40;;;3.63;;
69789;SDS011;57064;52.046;4.800;2023-04-24T02:23:36;6.78;;;3.00;;
69789;SDS011;57064;52.046;4.800;2023-04-24T02:26:02;6.53;;;3.03;;
69789;SDS011;57064;52.046;4.800;2023-04-24T02:28:28;7.78;;;3.17;;
69789;SDS011;57064;52.046;4.800;2023-04-24T02:30:54;6.30;;;3.05;;
69789;SDS011;57064;52.046;4.800;2023-04-24T02:33:20;9.02;;;3.90;;
69789;SDS011;57064;52.046;4.800;2023-04-24T02:35:46;9.48;;;3.72;;
69789;SDS011;57064;52.046;4.800;2023-04-24T02:38:13;9.15;;;3.70;;
69789;SDS011;57064;52.046;4.800;2023-04-24T02:40:39;10.65;;;4.80;;
69789;SDS011;57064;52.046;4.800;2023-04-24T02:43:05;12.93;;;4.82;;
69789;SDS011;57064;52.046;4.800;2023-04-24T02:45:31;15.35;;;6.03;;
69789;SDS011;57064;52.046;4.800;2023-04-24T02:47:59;11.75;;;5.35;;
69789;SDS011;57064;52.046;4.800;2023-04-24T02:50:25;11.75;;;5.07;;
69789;SDS011;57064;52.046;4.800;2023-04-24T02:52:51;12.48;;;4.95;;
69789;SDS011;57064;52.046;4.800;2023-04-24T02:55:17;13.75;;;4.55;;
69789;SDS011;57064;52.046;4.800;2023-04-24T02:57:43;11.63;;;5.60;;
69789;SDS011;57064;52.046;4.800;2023-04-24T03:00:10;13.13;;;4.85;;
69789;SDS011;57064;52.046;4.800;2023-04-24T03:02:36;18.77;;;6.07;;
69789;SDS011;57064;52.046;4.800;2023-04-24T03:05:02;10.23;;;4.13;;
69789;SDS011;57064;52.046;4.800;2023-04-24T03:07:29;12.48;;;5.60;;
69789;SDS011;57064;52.046;4.800;2023-04-24T03:09:56;10.30;;;4.13;;
69789;SDS011;57064;52.046;4.800;2023-04-24T03:12:23;11.38;;;4.82;;
69789;SDS011;57064;52.046;4.800;2023-04-24T03:14:49;10.23;;;3.97;;
69789;SDS011;57064;52.046;4.800;2023-04-24T03:17:15;8.50;;;4.07;;
69789;SDS011;57064;52.046;4.800;2023-04-24T03:19:41;8.20;;;3.17;;
69789;SDS011;57064;52.046;4.800;2023-04-24T03:22:07;5.93;;;2.85;;
69789;SDS011;57064;52.046;4.800;2023-04-24T03:24:34;10.45;;;3.97;;
69789;SDS011;57064;52.046;4.800;2023-04-24T03:27:00;7.55;;;2.97;;
69789;SDS011;57064;52.046;4.800;2023-04-24T03:29:26;7.22;;;2.35;;
69789;SDS011;57064;52.046;4.800;2023-04-24T03:31:52;7.30;;;2.05;;
69789;SDS011;57064;52.046;4.800;2023-04-24T03:34:18;5.40;;;2.13;;
69789;SDS011;57064;52.046;4.800;2023-04-24T03:36:44;6.70;;;1.70;;
69789;SDS011;57064;52.046;4.800;2023-04-24T03:39:12;7.20;;;1.42;;
69789;SDS011;57064;52.046;4.800;2023-04-24T03:41:38;2.58;;;1.40;;
69789;SDS011;57064;52.046;4.800;2023-04-24T03:44:04;3.40;;;0.90;;
69789;SDS011;57064;52.046;4.800;2023-04-24T03:46:31;2.03;;;0.65;;
69789;SDS011;57064;52.046;4.800;2023-04-24T03:48:57;3.85;;;1.15;;
69789;SDS011;57064;52.046;4.800;2023-04-24T03:51:23;2.38;;;0.82;;
69789;SDS011;57064;52.046;4.800;2023-04-24T03:53:49;5.30;;;1.10;;
69789;SDS011;57064;52.046;4.800;2023-04-24T03:56:15;3.45;;;1.42;;
69789;SDS011;57064;52.046;4.800;2023-04-24T03:58:42;3.33;;;1.52;;
69789;SDS011;57064;52.046;4.800;2023-04-24T04:01:08;1.45;;;0.80;;
69789;SDS011;57064;52.046;4.800;2023-04-24T04:03:35;3.40;;;1.30;;
69789;SDS011;57064;52.046;4.800;2023-04-24T04:06:02;2.97;;;1.00;;
69789;SDS011;57064;52.046;4.800;2023-04-24T04:08:28;7.55;;;3.30;;
69789;SDS011;57064;52.046;4.800;2023-04-24T04:10:54;7.00;;;3.42;;
69789;SDS011;57064;52.046;4.800;2023-04-24T04:13:20;3.15;;;1.48;;
69789;SDS011;57064;52.046;4.800;2023-04-24T04:15:46;2.35;;;1.20;;
69789;SDS011;57064;52.046;4.800;2023-04-24T04:18:13;2.70;;;1.05;;
69789;SDS011;57064;52.046;4.800;2023-04-24T04:20:40;4.20;;;1.10;;
69789;SDS011;57064;52.046;4.800;2023-04-24T04:23:06;4.18;;;1.05;;
69789;SDS011;57064;52.046;4.800;2023-04-24T04:25:33;5.53;;;0.70;;
69789;SDS011;57064;52.046;4.800;2023-04-24T04:27:59;3.30;;;1.35;;
69789;SDS011;57064;52.046;4.800;2023-04-24T04:30:26;2.17;;;1.00;;
69789;SDS011;57064;52.046;4.800;2023-04-24T04:32:54;4.63;;;1.00;;
69789;SDS011;57064;52.046;4.800;2023-04-24T04:35:21;4.28;;;1.17;;
69789;SDS011;57064;52.046;4.800;2023-04-24T04:37:47;3.63;;;0.88;;
69789;SDS011;57064;52.046;4.800;2023-04-24T04:40:13;2.90;;;1.00;;
69789;SDS011;57064;52.046;4.800;2023-04-24T04:42:39;4.18;;;1.08;;
69789;SDS011;57064;52.046;4.800;2023-04-24T04:45:09;1.52;;;0.82;;
69789;SDS011;57064;52.046;4.800;2023-04-24T04:47:37;1.60;;;0.90;;
69789;SDS011;57064;52.046;4.800;2023-04-24T04:50:04;7.03;;;0.88;;
69789;SDS011;57064;52.046;4.800;2023-04-24T04:52:31;2.78;;;0.90;;
69789;SDS011;57064;52.046;4.800;2023-04-24T04:54:57;3.08;;;1.10;;
69789;SDS011;57064;52.046;4.800;2023-04-24T04:57:23;2.28;;;0.80;;
69789;SDS011;57064;52.046;4.800;2023-04-24T04:59:49;2.65;;;0.90;;
69789;SDS011;57064;52.046;4.800;2023-04-24T05:02:15;2.47;;;1.10;;
69789;SDS011;57064;52.046;4.800;2023-04-24T05:04:41;1.25;;;0.50;;
69789;SDS011;57064;52.046;4.800;2023-04-24T05:07:07;1.80;;;0.60;;
69789;SDS011;57064;52.046;4.800;2023-04-24T05:09:33;10.98;;;4.32;;
69789;SDS011;57064;52.046;4.800;2023-04-24T05:11:59;4.95;;;1.45;;
69789;SDS011;57064;52.046;4.800;2023-04-24T05:14:27;2.20;;;0.60;;
69789;SDS011;57064;52.046;4.800;2023-04-24T05:16:53;5.28;;;0.90;;
69789;SDS011;57064;52.046;4.800;2023-04-24T05:19:19;7.57;;;3.50;;
69789;SDS011;57064;52.046;4.800;2023-04-24T05:21:45;5.93;;;3.55;;
69789;SDS011;57064;52.046;4.800;2023-04-24T05:24:11;6.97;;;3.30;;
69789;SDS011;57064;52.046;4.800;2023-04-24T05:26:37;11.77;;;5.57;;
69789;SDS011;57064;52.046;4.800;2023-04-24T05:29:03;13.00;;;5.75;;
69789;SDS011;57064;52.046;4.800;2023-04-24T05:31:30;15.45;;;5.30;;
69789;SDS011;57064;52.046;4.800;2023-04-24T05:33:56;11.30;;;6.03;;
69789;SDS011;57064;52.046;4.800;2023-04-24T05:36:22;11.25;;;6.07;;
69789;SDS011;57064;52.046;4.800;2023-04-24T05:38:48;11.80;;;5.38;;
69789;SDS011;57064;52.046;4.800;2023-04-24T05:41:14;16.45;;;7.63;;
69789;SDS011;57064;52.046;4.800;2023-04-24T05:43:40;19.02;;;8.55;;
69789;SDS011;57064;52.046;4.800;2023-04-24T05:46:06;20.00;;;10.77;;
69789;SDS011;57064;52.046;4.800;2023-04-24T05:48:34;30.90;;;14.63;;
69789;SDS011;57064;52.046;4.800;2023-04-24T05:51:00;25.75;;;12.70;;
69789;SDS011;57064;52.046;4.800;2023-04-24T05:53:26;31.98;;;13.05;;
69789;SDS011;57064;52.046;4.800;2023-04-24T05:55:52;25.15;;;12.57;;
69789;SDS011;57064;52.046;4.800;2023-04-24T05:58:18;33.22;;;17.50;;
69789;SDS011;57064;52.046;4.800;2023-04-24T06:00:44;31.85;;;14.55;;
69789;SDS011;57064;52.046;4.800;2023-04-24T06:03:11;40.10;;;16.67;;
69789;SDS011;57064;52.046;4.800;2023-04-24T06:05:37;30.25;;;14.93;;
69789;SDS011;57064;52.046;4.800;2023-04-24T06:08:04;36.67;;;20.10;;
69789;SDS011;57064;52.046;4.800;2023-04-24T06:10:30;28.73;;;13.15;;
69789;SDS011;57064;52.046;4.800;2023-04-24T06:12:56;36.42;;;14.02;;
69789;SDS011;57064;52.046;4.800;2023-04-24T06:15:26;29.30;;;12.90;;
69789;SDS011;57064;52.046;4.800;2023-04-24T06:17:56;33.28;;;13.15;;
69789;SDS011;57064;52.046;4.800;2023-04-24T06:20:22;29.73;;;11.88;;
69789;SDS011;57064;52.046;4.800;2023-04-24T06:22:48;31.17;;;11.77;;
69789;SDS011;57064;52.046;4.800;2023-04-24T06:25:14;30.35;;;11.93;;
69789;SDS011;57064;52.046;4.800;2023-04-24T06:27:40;32.80;;;12.00;;
69789;SDS011;57064;52.046;4.800;2023-04-24T06:30:07;37.88;;;14.25;;
69789;SDS011;57064;52.046;4.800;2023-04-24T06:32:33;22.98;;;10.95;;
69789;SDS011;57064;52.046;4.800;2023-04-24T06:35:00;29.00;;;13.70;;
69789;SDS011;57064;52.046;4.800;2023-04-24T06:37:27;20.63;;;10.15;;
69789;SDS011;57064;52.046;4.800;2023-04-24T06:39:54;21.95;;;8.65;;
69789;SDS011;57064;52.046;4.800;2023-04-24T06:42:20;21.40;;;9.98;;
69789;SDS011;57064;52.046;4.800;2023-04-24T06:44:47;32.47;;;9.00;;
69789;SDS011;57064;52.046;4.800;2023-04-24T06:47:13;32.45;;;9.57;;
69789;SDS011;57064;52.046;4.800;2023-04-24T06:49:39;29.55;;;10.05;;
69789;SDS011;57064;52.046;4.800;2023-04-24T06:52:05;23.52;;;9.98;;
69789;SDS011;57064;52.046;4.800;2023-04-24T06:54:33;23.02;;;10.85;;
69789;SDS011;57064;52.046;4.800;2023-04-24T06:57:05;27.33;;;9.25;;
69789;SDS011;57064;52.046;4.800;2023-04-24T06:59:31;30.20;;;10.00;;
69789;SDS011;57064;52.046;4.800;2023-04-24T07:01:57;32.95;;;11.05;;
69789;SDS011;57064;52.046;4.800;2023-04-24T07:04:23;27.95;;;11.30;;
69789;SDS011;57064;52.046;4.800;2023-04-24T07:06:50;32.03;;;9.13;;
69789;SDS011;57064;52.046;4.800;2023-04-24T07:09:16;26.35;;;7.72;;
69789;SDS011;57064;52.046;4.800;2023-04-24T07:11:43;18.27;;;6.22;;
69789;SDS011;57064;52.046;4.800;2023-04-24T07:14:10;18.85;;;7.85;;
69789;SDS011;57064;52.046;4.800;2023-04-24T07:16:37;32.10;;;8.15;;
69789;SDS011;57064;52.046;4.800;2023-04-24T07:19:03;19.02;;;5.78;;
69789;SDS011;57064;52.046;4.800;2023-04-24T07:21:29;21.13;;;7.53;;
69789;SDS011;57064;52.046;4.800;2023-04-24T07:23:56;22.17;;;7.05;;
69789;SDS011;57064;52.046;4.800;2023-04-24T07:26:27;21.17;;;6.25;;
69789;SDS011;57064;52.046;4.800;2023-04-24T07:28:54;18.50;;;5.88;;
69789;SDS011;57064;52.046;4.800;2023-04-24T07:31:21;21.55;;;5.43;;
69789;SDS011;57064;52.046;4.800;2023-04-24T07:33:47;19.45;;;5.70;;
69789;SDS011;57064;52.046;4.800;2023-04-24T07:36:15;15.52;;;4.63;;
69789;SDS011;57064;52.046;4.800;2023-04-24T07:38:44;15.27;;;3.35;;
69789;SDS011;57064;52.046;4.800;2023-04-24T07:41:13;11.32;;;5.05;;
69789;SDS011;57064;52.046;4.800;2023-04-24T07:43:39;22.35;;;4.20;;
69789;SDS011;57064;52.046;4.800;2023-04-24T07:46:06;18.98;;;4.32;;
69789;SDS011;57064;52.046;4.800;2023-04-24T07:48:33;15.73;;;4.40;;
69789;SDS011;57064;52.046;4.800;2023-04-24T07:50:59;12.63;;;2.80;;
69789;SDS011;57064;52.046;4.800;2023-04-24T07:53:25;15.95;;;2.85;;
69789;SDS011;57064;52.046;4.800;2023-04-24T07:55:51;10.50;;;2.55;;
69789;SDS011;57064;52.046;4.800;2023-04-24T07:58:18;12.98;;;3.40;;
69789;SDS011;57064;52.046;4.800;2023-04-24T08:00:45;12.55;;;2.63;;
69789;SDS011;57064;52.046;4.800;2023-04-24T08:03:11;12.60;;;3.13;;
69789;SDS011;57064;52.046;4.800;2023-04-24T08:05:38;10.85;;;3.45;;
69789;SDS011;57064;52.046;4.800;2023-04-24T08:08:04;10.57;;;2.33;;
69789;SDS011;57064;52.046;4.800;2023-04-24T08:10:30;12.18;;;2.95;;
69789;SDS011;57064;52.046;4.800;2023-04-24T08:12:56;11.20;;;3.00;;
69789;SDS011;57064;52.046;4.800;2023-04-24T08:15:22;15.95;;;3.22;;
69789;SDS011;57064;52.046;4.800;2023-04-24T08:17:48;12.43;;;3.00;;
69789;SDS011;57064;52.046;4.800;2023-04-24T08:20:15;9.65;;;2.75;;
69789;SDS011;57064;52.046;4.800;2023-04-24T08:22:42;10.07;;;2.78;;
69789;SDS011;57064;52.046;4.800;2023-04-24T08:25:10;11.02;;;3.50;;
69789;SDS011;57064;52.046;4.800;2023-04-24T08:27:36;11.38;;;2.45;;
69789;SDS011;57064;52.046;4.800;2023-04-24T08:30:04;11.60;;;2.80;;
69789;SDS011;57064;52.046;4.800;2023-04-24T08:32:31;10.50;;;2.58;;
69789;SDS011;57064;52.046;4.800;2023-04-24T08:34:58;12.63;;;2.30;;
69789;SDS011;57064;52.046;4.800;2023-04-24T08:37:25;9.93;;;2.95;;
69789;SDS011;57064;52.046;4.800;2023-04-24T08:39:52;8.93;;;2.65;;
69789;SDS011;57064;52.046;4.800;2023-04-24T08:42:19;12.82;;;2.60;;
69789;SDS011;57064;52.046;4.800;2023-04-24T08:44:46;10.75;;;2.53;;
69789;SDS011;57064;52.046;4.800;2023-04-24T08:47:14;6.43;;;1.90;;
69789;SDS011;57064;52.046;4.800;2023-04-24T08:49:41;9.98;;;2.53;;
69789;SDS011;57064;52.046;4.800;2023-04-24T08:52:07;9.98;;;2.40;;
69789;SDS011;57064;52.046;4.800;2023-04-24T08:54:34;7.20;;;2.05;;
69789;SDS011;57064;52.046;4.800;2023-04-24T08:57:01;5.07;;;2.05;;
69789;SDS011;57064;52.046;4.800;2023-04-24T08:59:29;6.53;;;2.03;;
69789;SDS011;57064;52.046;4.800;2023-04-24T09:01:56;6.22;;;1.65;;
69789;SDS011;57064;52.046;4.800;2023-04-24T09:04:23;7.75;;;2.05;;
69789;SDS011;57064;52.046;4.800;2023-04-24T09:06:50;7.20;;;2.17;;
69789;SDS011;57064;52.046;4.800;2023-04-24T09:09:19;5.47;;;1.80;;
69789;SDS011;57064;52.046;4.800;2023-04-24T09:11:46;6.70;;;1.67;;
69789;SDS011;57064;52.046;4.800;2023-04-24T09:14:14;9.38;;;2.15;;
69789;SDS011;57064;52.046;4.800;2023-04-24T09:16:40;10.73;;;2.03;;
69789;SDS011;57064;52.046;4.800;2023-04-24T09:19:07;8.30;;;1.92;;
69789;SDS011;57064;52.046;4.800;2023-04-24T09:21:33;4.47;;;1.63;;
69789;SDS011;57064;52.046;4.800;2023-04-24T09:24:01;5.00;;;1.55;;
69789;SDS011;57064;52.046;4.800;2023-04-24T09:26:30;6.57;;;1.58;;
69789;SDS011;57064;52.046;4.800;2023-04-24T09:28:57;8.82;;;1.48;;
69789;SDS011;57064;52.046;4.800;2023-04-24T09:31:24;4.93;;;1.42;;
69789;SDS011;57064;52.046;4.800;2023-04-24T09:33:57;5.20;;;1.50;;
69789;SDS011;57064;52.046;4.800;2023-04-24T09:36:28;5.55;;;1.38;;
69789;SDS011;57064;52.046;4.800;2023-04-24T09:38:58;4.55;;;1.30;;
69789;SDS011;57064;52.046;4.800;2023-04-24T09:41:25;6.68;;;1.38;;
69789;SDS011;57064;52.046;4.800;2023-04-24T09:43:56;4.75;;;0.90;;
69789;SDS011;57064;52.046;4.800;2023-04-24T09:46:29;6.57;;;1.13;;
69789;SDS011;57064;52.046;4.800;2023-04-24T09:49:03;4.20;;;1.20;;
69789;SDS011;57064;52.046;4.800;2023-04-24T09:51:35;4.05;;;1.08;;
69789;SDS011;57064;52.046;4.800;2023-04-24T09:54:03;5.07;;;0.80;;
69789;SDS011;57064;52.046;4.800;2023-04-24T09:56:35;5.00;;;0.75;;
69789;SDS011;57064;52.046;4.800;2023-04-24T09:59:06;4.43;;;0.90;;
69789;SDS011;57064;52.046;4.800;2023-04-24T10:01:33;4.82;;;0.98;;
69789;SDS011;57064;52.046;4.800;2023-04-24T10:03:59;4.32;;;1.02;;
69789;SDS011;57064;52.046;4.800;2023-04-24T10:06:35;3.67;;;0.80;;
69789;SDS011;57064;52.046;4.800;2023-04-24T10:09:02;4.43;;;0.90;;
69789;SDS011;57064;52.046;4.800;2023-04-24T10:11:28;5.57;;;1.13;;
69789;SDS011;57064;52.046;4.800;2023-04-24T10:13:55;4.10;;;1.05;;
69789;SDS011;57064;52.046;4.800;2023-04-24T10:16:23;3.63;;;1.05;;
69789;SDS011;57064;52.046;4.800;2023-04-24T10:18:49;4.93;;;1.20;;
69789;SDS011;57064;52.046;4.800;2023-04-24T10:21:16;4.90;;;1.73;;
69789;SDS011;57064;52.046;4.800;2023-04-24T10:23:42;2.55;;;0.95;;
69789;SDS011;57064;52.046;4.800;2023-04-24T10:26:14;10.20;;;1.98;;
69789;SDS011;57064;52.046;4.800;2023-04-24T10:28:47;5.10;;;1.40;;
69789;SDS011;57064;52.046;4.800;2023-04-24T10:31:13;2.10;;;0.60;;
69789;SDS011;57064;52.046;4.800;2023-04-24T10:33:41;7.85;;;1.25;;
69789;SDS011;57064;52.046;4.800;2023-04-24T10:36:09;7.28;;;1.00;;
69789;SDS011;57064;52.046;4.800;2023-04-24T10:38:39;6.28;;;1.25;;
69789;SDS011;57064;52.046;4.800;2023-04-24T10:41:10;2.75;;;0.90;;
69789;SDS011;57064;52.046;4.800;2023-04-24T10:43:48;2.55;;;0.73;;
69789;SDS011;57064;52.046;4.800;2023-04-24T10:46:29;4.47;;;0.90;;
69789;SDS011;57064;52.046;4.800;2023-04-24T10:48:55;4.22;;;0.93;;
69789;SDS011;57064;52.046;4.800;2023-04-24T10:51:23;4.22;;;0.90;;
69789;SDS011;57064;52.046;4.800;2023-04-24T10:54:21;7.07;;;0.73;;
69789;SDS011;57064;52.046;4.800;2023-04-24T10:56:52;2.13;;;0.70;;
69789;SDS011;57064;52.046;4.800;2023-04-24T10:59:25;4.97;;;0.70;;
69789;SDS011;57064;52.046;4.800;2023-04-24T11:01:53;4.68;;;1.05;;
69789;SDS011;57064;52.046;4.800;2023-04-24T11:04:29;5.53;;;1.27;;
69789;SDS011;57064;52.046;4.800;2023-04-24T11:06:56;8.30;;;1.45;;
69789;SDS011;57064;52.046;4.800;2023-04-24T11:09:23;5.72;;;1.02;;
69789;SDS011;57064;52.046;4.800;2023-04-24T11:12:02;7.25;;;1.33;;
69789;SDS011;57064;52.046;4.800;2023-04-24T11:17:34;3.67;;;1.45;;
69789;SDS011;57064;52.046;4.800;2023-04-24T11:20:08;8.77;;;1.55;;
69789;SDS011;57064;52.046;4.800;2023-04-24T11:22:37;3.92;;;1.35;;
69789;SDS011;57064;52.046;4.800;2023-04-24T11:25:08;7.45;;;1.10;;
69789;SDS011;57064;52.046;4.800;2023-04-24T11:27:40;5.63;;;1.38;;
69789;SDS011;57064;52.046;4.800;2023-04-24T11:30:08;8.35;;;1.58;;
69789;SDS011;57064;52.046;4.800;2023-04-24T11:32:39;4.45;;;0.63;;
69789;SDS011;57064;52.046;4.800;2023-04-24T11:35:17;5.22;;;0.93;;
69789;SDS011;57064;52.046;4.800;2023-04-24T11:37:47;5.40;;;1.25;;
69789;SDS011;57064;52.046;4.800;2023-04-24T11:40:15;10.75;;;2.08;;
69789;SDS011;57064;52.046;4.800;2023-04-24T11:42:43;5.10;;;1.70;;
69789;SDS011;57064;52.046;4.800;2023-04-24T11:45:11;2.25;;;0.82;;
69789;SDS011;57064;52.046;4.800;2023-04-24T11:47:38;3.97;;;1.40;;
69789;SDS011;57064;52.046;4.800;2023-04-24T11:50:05;4.35;;;1.17;;
69789;SDS011;57064;52.046;4.800;2023-04-24T11:52:36;8.30;;;1.65;;
69789;SDS011;57064;52.046;4.800;2023-04-24T11:55:03;12.80;;;2.13;;
69789;SDS011;57064;52.046;4.800;2023-04-24T11:57:29;7.57;;;1.40;;
69789;SDS011;57064;52.046;4.800;2023-04-24T12:00:01;9.48;;;2.05;;
69789;SDS011;57064;52.046;4.800;2023-04-24T12:02:30;8.23;;;1.55;;
69789;SDS011;57064;52.046;4.800;2023-04-24T12:04:56;7.35;;;1.45;;
69789;SDS011;57064;52.046;4.800;2023-04-24T12:07:22;7.30;;;1.30;;
69789;SDS011;57064;52.046;4.800;2023-04-24T12:09:58;9.35;;;2.00;;
69789;SDS011;57064;52.046;4.800;2023-04-24T12:12:28;9.32;;;2.00;;
69789;SDS011;57064;52.046;4.800;2023-04-24T12:14:55;10.57;;;2.10;;
69789;SDS011;57064;52.046;4.800;2023-04-24T12:17:29;7.63;;;1.80;;
69789;SDS011;57064;52.046;4.800;2023-04-24T12:19:57;5.65;;;1.77;;
69789;SDS011;57064;52.046;4.800;2023-04-24T12:22:25;12.07;;;2.50;;
69789;SDS011;57064;52.046;4.800;2023-04-24T12:25:03;8.75;;;1.92;;
69789;SDS011;57064;52.046;4.800;2023-04-24T12:27:31;10.05;;;2.80;;
69789;SDS011;57064;52.046;4.800;2023-04-24T12:30:02;9.10;;;2.33;;
69789;SDS011;57064;52.046;4.800;2023-04-24T12:34:57;11.50;;;2.90;;
69789;SDS011;57064;52.046;4.800;2023-04-24T12:37:25;18.00;;;3.50;;
69789;SDS011;57064;52.046;4.800;2023-04-24T12:40:07;17.42;;;2.25;;
69789;SDS011;57064;52.046;4.800;2023-04-24T12:42:42;12.85;;;3.05;;
69789;SDS011;57064;52.046;4.800;2023-04-24T12:45:15;8.98;;;1.95;;
69789;SDS011;57064;52.046;4.800;2023-04-24T12:47:44;13.13;;;2.28;;
69789;SDS011;57064;52.046;4.800;2023-04-24T12:50:12;11.32;;;2.80;;
69789;SDS011;57064;52.046;4.800;2023-04-24T12:52:40;15.00;;;2.60;;
69789;SDS011;57064;52.046;4.800;2023-04-24T12:55:07;8.23;;;2.28;;
69789;SDS011;57064;52.046;4.800;2023-04-24T12:57:36;13.30;;;2.65;;
69789;SDS011;57064;52.046;4.800;2023-04-24T13:00:03;9.95;;;2.58;;
69789;SDS011;57064;52.046;4.800;2023-04-24T13:02:46;7.38;;;1.70;;
69789;SDS011;57064;52.046;4.800;2023-04-24T13:05:13;11.55;;;2.28;;
69789;SDS011;57064;52.046;4.800;2023-04-24T13:07:39;9.77;;;2.45;;
69789;SDS011;57064;52.046;4.800;2023-04-24T13:10:05;12.93;;;3.53;;
69789;SDS011;57064;52.046;4.800;2023-04-24T13:12:32;11.50;;;2.92;;
69789;SDS011;57064;52.046;4.800;2023-04-24T13:15:00;11.32;;;2.97;;
69789;SDS011;57064;52.046;4.800;2023-04-24T13:17:26;9.57;;;3.13;;
69789;SDS011;57064;52.046;4.800;2023-04-24T13:19:53;9.27;;;2.63;;
69789;SDS011;57064;52.046;4.800;2023-04-24T13:22:20;13.85;;;2.90;;
69789;SDS011;57064;52.046;4.800;2023-04-24T13:24:46;9.27;;;2.30;;
69789;SDS011;57064;52.046;4.800;2023-04-24T13:27:16;12.00;;;3.13;;
69789;SDS011;57064;52.046;4.800;2023-04-24T13:29:42;14.50;;;3.40;;
69789;SDS011;57064;52.046;4.800;2023-04-24T13:32:08;11.15;;;3.30;;
69789;SDS011;57064;52.046;4.800;2023-04-24T13:34:35;11.75;;;3.10;;
69789;SDS011;57064;52.046;4.800;2023-04-24T13:37:02;10.07;;;2.90;;
69789;SDS011;57064;52.046;4.800;2023-04-24T13:39:29;11.77;;;2.50;;
69789;SDS011;57064;52.046;4.800;2023-04-24T13:41:56;12.10;;;2.78;;
69789;SDS011;57064;52.046;4.800;2023-04-24T13:44:23;9.68;;;2.55;;
69789;SDS011;57064;52.046;4.800;2023-04-24T13:46:50;9.88;;;2.35;;
69789;SDS011;57064;52.046;4.800;2023-04-24T13:49:19;13.48;;;3.80;;
69789;SDS011;57064;52.046;4.800;2023-04-24T13:51:46;8.40;;;2.55;;
69789;SDS011;57064;52.046;4.800;2023-04-24T13:54:12;8.20;;;2.47;;
69789;SDS011;57064;52.046;4.800;2023-04-24T13:56:42;13.48;;;3.25;;
69789;SDS011;57064;52.046;4.800;2023-04-24T13:59:08;9.55;;;2.45;;
69789;SDS011;57064;52.046;4.800;2023-04-24T14:01:34;6.55;;;2.10;;
69789;SDS011;57064;52.046;4.800;2023-04-24T14:04:00;7.07;;;1.92;;
69789;SDS011;57064;52.046;4.800;2023-04-24T14:06:26;11.70;;;2.92;;
69789;SDS011;57064;52.046;4.800;2023-04-24T14:08:53;10.88;;;2.60;;
69789;SDS011;57064;52.046;4.800;2023-04-24T14:11:19;10.15;;;3.20;;
69789;SDS011;57064;52.046;4.800;2023-04-24T14:13:45;6.50;;;2.33;;
69789;SDS011;57064;52.046;4.800;2023-04-24T14:16:11;10.50;;;3.20;;
69789;SDS011;57064;52.046;4.800;2023-04-24T14:18:37;12.73;;;3.65;;
69789;SDS011;57064;52.046;4.800;2023-04-24T14:21:04;15.25;;;3.50;;
69789;SDS011;57064;52.046;4.800;2023-04-24T14:23:30;14.63;;;4.82;;
69789;SDS011;57064;52.046;4.800;2023-04-24T14:25:57;12.95;;;3.85;;
69789;SDS011;57064;52.046;4.800;2023-04-24T14:28:23;14.38;;;3.40;;
69789;SDS011;57064;52.046;4.800;2023-04-24T14:30:49;16.48;;;3.63;;
69789;SDS011;57064;52.046;4.800;2023-04-24T14:33:15;17.38;;;4.53;;
69789;SDS011;57064;52.046;4.800;2023-04-24T14:35:42;11.50;;;3.83;;
69789;SDS011;57064;52.046;4.800;2023-04-24T14:38:08;16.58;;;4.50;;
69789;SDS011;57064;52.046;4.800;2023-04-24T14:40:35;13.48;;;4.40;;
69789;SDS011;57064;52.046;4.800;2023-04-24T14:43:01;17.42;;;4.03;;
69789;SDS011;57064;52.046;4.800;2023-04-24T14:45:27;7.60;;;3.40;;
69789;SDS011;57064;52.046;4.800;2023-04-24T14:47:54;14.20;;;4.13;;